Wetterdaten: Woche 12.09.16 - 18.09.16 (KW37)
Datum Zeit Temp. I. Temp. A. Feuchte I. Feuchte A. Luftdruck Regen Wind Richtung Sonnenschein UV Solar Taupunkt Windchill Windben
12.09.2016 12:00 25,0 C 28,2 C 54 % 43 % 1017,9 hPa 0,0 l/m 5,5 km/h (1 Bft) O 1,15 h 4,2 UV-I 663 W/m 14,6 C 28,2 C 12,9 km/h (3 Bft)
12.09.2016 13:00 25,1 C 28,9 C 53 % 41 % 1017,7 hPa 0,0 l/m 4,7 km/h (1 Bft) SO 1,00 h 4,1 UV-I 656 W/m 14,2 C 28,8 C 10,6 km/h (2 Bft)
12.09.2016 14:00 25,4 C 29,2 C 52 % 39 % 1017,4 hPa 0,0 l/m 5,0 km/h (1 Bft) SO 1,00 h 3,6 UV-I 608 W/m 13,8 C 29,1 C 11,2 km/h (2 Bft)
12.09.2016 15:00 25,3 C 29,4 C 52 % 37 % 1017,0 hPa 0,0 l/m 3,1 km/h (1 Bft) O 1,00 h 2,7 UV-I 517 W/m 13,2 C 29,4 C 7,8 km/h (2 Bft)
12.09.2016 16:00 25,4 C 29,3 C 51 % 36 % 1016,6 hPa 0,0 l/m 3,1 km/h (1 Bft) O-SO 1,00 h 1,6 UV-I 390 W/m 12,5 C 29,3 C 7,2 km/h (2 Bft)
12.09.2016 17:00 25,3 C 28,8 C 51 % 37 % 1016,5 hPa 0,0 l/m 1,8 km/h (1 Bft) O-SO 0,85 h 0,8 UV-I 219 W/m 12,8 C 28,8 C 5,5 km/h (1 Bft)
12.09.2016 18:00 25,2 C 27,7 C 51 % 41 % 1016,2 hPa 0,0 l/m 0,2 km/h (0 Bft) SO 0,00 h 0,0 UV-I 59 W/m 13,2 C 27,7 C 0,9 km/h (0 Bft)
12.09.2016 19:00 25,2 C 24,5 C 51 % 51 % 1016,3 hPa 0,0 l/m 0,0 km/h (0 Bft) N 0,00 h 0,0 UV-I 11 W/m 13,8 C 24,5 C 0,0 km/h (0 Bft)
12.09.2016 20:00 25,1 C 22,4 C 51 % 62 % 1016,7 hPa 0,0 l/m 0,0 km/h (0 Bft) N 0,00 h 0,0 UV-I 0 W/m 14,8 C 22,4 C 0,0 km/h (0 Bft)
12.09.2016 21:00 25,1 C 20,1 C 52 % 70 % 1016,9 hPa 0,0 l/m 0,0 km/h (0 Bft) N 0,00 h 0,0 UV-I 0 W/m 14,4 C 20,1 C 0,0 km/h (0 Bft)
12.09.2016 22:00 25,1 C 18,3 C 52 % 75 % 1017,1 hPa 0,0 l/m 0,0 km/h (0 Bft) N 0,00 h 0,0 UV-I 0 W/m 13,8 C 18,3 C 0,0 km/h (0 Bft)
12.09.2016 23:00 25,0 C 17,1 C 52 % 80 % 1017,2 hPa 0,0 l/m 0,0 km/h (0 Bft) N 0,00 h 0,0 UV-I 0 W/m 13,5 C 17,1 C 0,0 km/h (0 Bft)
13.09.2016 00:00 24,9 C 16,1 C 53 % 83 % 1017,2 hPa 0,0 l/m 0,0 km/h (0 Bft) N 0,00 h 0,0 UV-I 0 W/m 13,1 C 16,1 C 0,0 km/h (0 Bft)
13.09.2016 01:00 24,9 C 15,2 C 53 % 86 % 1017,4 hPa 0,0 l/m 0,0 km/h (0 Bft) N 0,00 h 0,0 UV-I 0 W/m 12,8 C 15,2 C 0,0 km/h (0 Bft)
13.09.2016 02:00 24,9 C 14,5 C 53 % 87 % 1017,2 hPa 0,0 l/m 0,0 km/h (0 Bft) N 0,00 h 0,0 UV-I 0 W/m 12,3 C 14,5 C 0,0 km/h (0 Bft)
13.09.2016 03:00 24,9 C 13,9 C 53 % 88 % 1017,0 hPa 0,0 l/m 0,0 km/h (0 Bft) N 0,00 h 0,0 UV-I 0 W/m 12,0 C 13,9 C 0,0 km/h (0 Bft)
13.09.2016 04:00 24,9 C 13,6 C 53 % 90 % 1016,9 hPa 0,0 l/m 0,0 km/h (0 Bft) N 0,00 h 0,0 UV-I 0 W/m 11,9 C 13,6 C 0,0 km/h (0 Bft)
13.09.2016 05:00 24,8 C 13,1 C 53 % 90 % 1016,8 hPa 0,0 l/m 0,0 km/h (0 Bft) N 0,00 h 0,0 UV-I 0 W/m 11,5 C 13,1 C 0,0 km/h (0 Bft)
13.09.2016 06:00 24,8 C 12,6 C 53 % 91 % 1016,7 hPa 0,0 l/m 0,0 km/h (0 Bft) N 0,00 h 0,0 UV-I 8 W/m 11,1 C 12,6 C 0,0 km/h (0 Bft)
13.09.2016 07:00 24,8 C 12,3 C 52 % 92 % 1016,9 hPa 0,0 l/m 0,0 km/h (0 Bft) N 0,00 h 0,0 UV-I 24 W/m 11,0 C 12,3 C 0,0 km/h (0 Bft)
13.09.2016 08:00 24,7 C 14,5 C 53 % 94 % 1017,0 hPa 0,0 l/m 0,0 km/h (0 Bft) N 0,85 h 0,7 UV-I 220 W/m 13,5 C 14,5 C 0,0 km/h (0 Bft)
13.09.2016 09:00 24,8 C 21,3 C 53 % 75 % 1016,7 hPa 0,0 l/m 0,0 km/h (0 Bft) N 1,00 h 1,4 UV-I 396 W/m 16,6 C 21,3 C 0,0 km/h (0 Bft)
13.09.2016 10:00 24,9 C 25,1 C 53 % 58 % 1016,6 hPa 0,0 l/m 4,8 km/h (1 Bft) SO 1,00 h 2,4 UV-I 532 W/m 16,1 C 24,9 C 10,0 km/h (2 Bft)
13.09.2016 11:00 25,0 C 26,6 C 54 % 51 % 1016,4 hPa 0,0 l/m 6,3 km/h (2 Bft) O-SO 1,00 h 3,4 UV-I 621 W/m 15,5 C 26,4 C 12,5 km/h (3 Bft)
13.09.2016 12:00 25,2 C 27,7 C 53 % 45 % 1016,1 hPa 0,0 l/m 6,4 km/h (2 Bft) SO 1,00 h 4,1 UV-I 663 W/m 14,7 C 27,5 C 13,3 km/h (3 Bft)
13.09.2016 13:00 25,2 C 28,8 C 52 % 39 % 1015,6 hPa 0,0 l/m 7,7 km/h (2 Bft) SO 1,00 h 4,2 UV-I 670 W/m 13,5 C 28,6 C 14,6 km/h (3 Bft)
13.09.2016 14:00 25,4 C 29,2 C 50 % 36 % 1015,2 hPa 0,0 l/m 6,8 km/h (2 Bft) SO 1,00 h 3,6 UV-I 621 W/m 12,4 C 29,0 C 13,4 km/h (3 Bft)
13.09.2016 15:00 25,4 C 29,3 C 49 % 36 % 1014,9 hPa 0,0 l/m 3,1 km/h (1 Bft) O-SO 1,00 h 2,6 UV-I 523 W/m 12,5 C 29,3 C 8,1 km/h (2 Bft)
13.09.2016 16:00 25,1 C 29,0 C 50 % 37 % 1014,5 hPa 0,0 l/m 2,5 km/h (1 Bft) O-SO 0,93 h 1,5 UV-I 364 W/m 12,7 C 28,9 C 7,3 km/h (2 Bft)
13.09.2016 17:00 24,7 C 28,3 C 51 % 37 % 1014,1 hPa 0,0 l/m 2,8 km/h (1 Bft) SO 0,85 h 0,8 UV-I 216 W/m 12,3 C 28,3 C 7,1 km/h (2 Bft)
13.09.2016 18:00 24,6 C 27,0 C 51 % 42 % 1013,9 hPa 0,0 l/m 0,5 km/h (0 Bft) O-SO 0,00 h 0,0 UV-I 58 W/m 13,0 C 27,0 C 2,0 km/h (1 Bft)
13.09.2016 19:00 24,4 C 24,3 C 51 % 51 % 1013,7 hPa 0,0 l/m 0,0 km/h (0 Bft) N 0,00 h 0,0 UV-I 11 W/m 13,5 C 24,3 C 0,0 km/h (0 Bft)
13.09.2016 20:00 24,4 C 22,0 C 52 % 62 % 1013,8 hPa 0,0 l/m 0,0 km/h (0 Bft) N 0,00 h 0,0 UV-I 0 W/m 14,3 C 22,0 C 0,0 km/h (0 Bft)
13.09.2016 21:00 24,3 C 20,3 C 52 % 67 % 1014,1 hPa 0,0 l/m 0,0 km/h (0 Bft) N 0,00 h 0,0 UV-I 0 W/m 14,0 C 20,3 C 0,0 km/h (0 Bft)
13.09.2016 22:00 24,3 C 18,6 C 53 % 73 % 1014,1 hPa 0,0 l/m 0,0 km/h (0 Bft) N 0,00 h 0,0 UV-I 0 W/m 13,6 C 18,6 C 0,0 km/h (0 Bft)
13.09.2016 23:00 24,3 C 17,3 C 53 % 77 % 1014,2 hPa 0,0 l/m 0,0 km/h (0 Bft) N 0,00 h 0,0 UV-I 0 W/m 13,2 C 17,3 C 0,0 km/h (0 Bft)
14.09.2016 00:00 24,2 C 16,5 C 53 % 79 % 1014,1 hPa 0,0 l/m 0,0 km/h (0 Bft) N 0,00 h 0,0 UV-I 0 W/m 12,8 C 16,5 C 0,0 km/h (0 Bft)
14.09.2016 01:00 24,2 C 15,9 C 53 % 82 % 1014,1 hPa 0,0 l/m 0,0 km/h (0 Bft) N 0,00 h 0,0 UV-I 0 W/m 12,9 C 15,9 C 0,0 km/h (0 Bft)
14.09.2016 02:00 24,2 C 15,5 C 54 % 82 % 1013,9 hPa 0,0 l/m 0,0 km/h (0 Bft) N 0,00 h 0,0 UV-I 0 W/m 12,5 C 15,5 C 0,0 km/h (0 Bft)
14.09.2016 03:00 24,2 C 14,5 C 54 % 84 % 1013,8 hPa 0,0 l/m 0,0 km/h (0 Bft) N 0,00 h 0,0 UV-I 0 W/m 11,8 C 14,5 C 0,0 km/h (0 Bft)
14.09.2016 04:00 24,1 C 13,7 C 54 % 86 % 1013,8 hPa 0,0 l/m 0,0 km/h (0 Bft) N 0,00 h 0,0 UV-I 0 W/m 11,3 C 13,7 C 0,0 km/h (0 Bft)
14.09.2016 05:00 24,1 C 12,9 C 53 % 88 % 1013,9 hPa 0,0 l/m 0,0 km/h (0 Bft) N 0,00 h 0,0 UV-I 0 W/m 10,9 C 12,9 C 0,0 km/h (0 Bft)
14.09.2016 06:00 24,1 C 12,4 C 53 % 89 % 1014,1 hPa 0,0 l/m 0,0 km/h (0 Bft) N 0,00 h 0,0 UV-I 6 W/m 10,7 C 12,4 C 0,0 km/h (0 Bft)
14.09.2016 07:00 24,6 C 12,2 C 52 % 91 % 1014,2 hPa 0,0 l/m 0,0 km/h (0 Bft) N 0,00 h 0,0 UV-I 27 W/m 10,7 C 12,2 C 0,0 km/h (0 Bft)
14.09.2016 08:00 24,8 C 14,3 C 51 % 91 % 1014,2 hPa 0,0 l/m 0,0 km/h (0 Bft) N 0,63 h 0,7 UV-I 192 W/m 12,8 C 14,3 C 0,1 km/h (0 Bft)
14.09.2016 09:00 24,9 C 21,5 C 52 % 68 % 1014,0 hPa 0,0 l/m 4,3 km/h (1 Bft) O-NO 1,00 h 1,3 UV-I 366 W/m 15,3 C 21,5 C 8,8 km/h (2 Bft)
14.09.2016 10:00 24,9 C 24,4 C 52 % 57 % 1014,0 hPa 0,0 l/m 4,5 km/h (1 Bft) O-NO 1,00 h 2,0 UV-I 461 W/m 15,3 C 24,2 C 9,9 km/h (2 Bft)
14.09.2016 11:00 25,0 C 26,1 C 52 % 52 % 1014,1 hPa 0,0 l/m 5,5 km/h (1 Bft) O-NO 1,00 h 2,5 UV-I 512 W/m 15,6 C 25,9 C 11,1 km/h (2 Bft)
14.09.2016 12:00 25,1 C 26,5 C 52 % 49 % 1014,2 hPa 0,0 l/m 4,6 km/h (1 Bft) O-NO 1,00 h 3,3 UV-I 496 W/m 15,0 C 26,3 C 10,1 km/h (2 Bft)
14.09.2016 13:00 25,2 C 27,5 C 52 % 46 % 1014,0 hPa 0,0 l/m 5,5 km/h (1 Bft) O-NO 0,97 h 3,8 UV-I 624 W/m 14,7 C 27,3 C 12,8 km/h (3 Bft)
14.09.2016 14:00 25,3 C 27,3 C 52 % 43 % 1013,7 hPa 0,0 l/m 5,5 km/h (1 Bft) O 0,82 h 3,1 UV-I 518 W/m 13,7 C 27,2 C 12,3 km/h (3 Bft)
14.09.2016 15:00 25,3 C 27,7 C 51 % 42 % 1013,3 hPa 0,0 l/m 4,4 km/h (1 Bft) O-NO 0,97 h 2,5 UV-I 506 W/m 13,7 C 27,7 C 11,0 km/h (2 Bft)
14.09.2016 16:00 25,3 C 27,4 C 51 % 43 % 1013,0 hPa 0,0 l/m 4,1 km/h (1 Bft) O-NO 1,00 h 1,5 UV-I 395 W/m 13,8 C 27,3 C 10,4 km/h (2 Bft)
14.09.2016 17:00 25,3 C 26,9 C 51 % 45 % 1012,9 hPa 0,0 l/m 2,7 km/h (1 Bft) O-NO 0,73 h 0,7 UV-I 208 W/m 13,9 C 26,9 C 7,5 km/h (2 Bft)
14.09.2016 18:00 25,3 C 25,7 C 51 % 48 % 1012,7 hPa 0,0 l/m 0,3 km/h (0 Bft) O 0,00 h 0,0 UV-I 55 W/m 13,9 C 25,7 C 1,9 km/h (1 Bft)
14.09.2016 19:00 25,3 C 23,4 C 51 % 57 % 1012,9 hPa 0,0 l/m 0,0 km/h (0 Bft) N 0,00 h 0,0 UV-I 10 W/m 14,4 C 23,4 C 0,0 km/h (0 Bft)
14.09.2016 20:00 25,2 C 20,6 C 51 % 69 % 1013,2 hPa 0,0 l/m 0,0 km/h (0 Bft) N 0,00 h 0,0 UV-I 0 W/m 14,7 C 20,6 C 0,0 km/h (0 Bft)
14.09.2016 21:00 25,1 C 19,8 C 52 % 71 % 1013,5 hPa 0,0 l/m 2,5 km/h (1 Bft) O-NO 0,00 h 0,0 UV-I 0 W/m 14,3 C 19,8 C 6,5 km/h (2 Bft)
14.09.2016 22:00 25,1 C 20,3 C 52 % 67 % 1013,6 hPa 0,0 l/m 4,1 km/h (1 Bft) O-NO 0,00 h 0,0 UV-I 0 W/m 14,1 C 20,3 C 10,1 km/h (2 Bft)
14.09.2016 23:00 25,0 C 20,1 C 52 % 66 % 1013,6 hPa 0,0 l/m 3,9 km/h (1 Bft) O-NO 0,00 h 0,0 UV-I 0 W/m 13,6 C 20,0 C 11,0 km/h (2 Bft)
15.09.2016 00:00 24,9 C 19,2 C 51 % 68 % 1013,5 hPa 0,0 l/m 2,3 km/h (1 Bft) O-NO 0,00 h 0,0 UV-I 0 W/m 13,3 C 19,2 C 7,1 km/h (2 Bft)
15.09.2016 01:00 24,8 C 18,5 C 51 % 70 % 1013,3 hPa 0,0 l/m 3,7 km/h (1 Bft) O-NO 0,00 h 0,0 UV-I 0 W/m 13,0 C 18,5 C 9,6 km/h (2 Bft)
15.09.2016 02:00 24,8 C 18,1 C 51 % 69 % 1013,3 hPa 0,0 l/m 2,6 km/h (1 Bft) O-NO 0,00 h 0,0 UV-I 0 W/m 12,3 C 18,0 C 9,0 km/h (2 Bft)
15.09.2016 03:00 24,7 C 17,4 C 50 % 70 % 1013,0 hPa 0,0 l/m 1,0 km/h (0 Bft) O 0,00 h 0,0 UV-I 0 W/m 11,9 C 17,4 C 3,6 km/h (1 Bft)
15.09.2016 04:00 24,7 C 16,7 C 50 % 72 % 1012,6 hPa 0,0 l/m 0,8 km/h (0 Bft) O 0,00 h 0,0 UV-I 0 W/m 11,6 C 16,7 C 3,2 km/h (1 Bft)
15.09.2016 05:00 24,6 C 16,2 C 49 % 74 % 1012,1 hPa 0,0 l/m 2,8 km/h (1 Bft) O 0,00 h 0,0 UV-I 0 W/m 11,5 C 16,2 C 8,7 km/h (2 Bft)
15.09.2016 06:00 24,6 C 15,6 C 49 % 75 % 1012,2 hPa 0,0 l/m 2,4 km/h (1 Bft) O-NO 0,00 h 0,0 UV-I 6 W/m 11,2 C 15,5 C 6,8 km/h (2 Bft)
15.09.2016 07:00 24,6 C 15,5 C 49 % 77 % 1012,4 hPa 0,0 l/m 0,9 km/h (0 Bft) NO 0,00 h 0,0 UV-I 24 W/m 11,3 C 15,5 C 2,9 km/h (1 Bft)
15.09.2016 08:00 24,6 C 17,0 C 49 % 71 % 1012,3 hPa 0,0 l/m 2,4 km/h (1 Bft) O-NO 0,68 h 0,7 UV-I 198 W/m 11,7 C 16,9 C 6,6 km/h (2 Bft)
15.09.2016 09:00 24,6 C 19,7 C 48 % 61 % 1012,0 hPa 0,0 l/m 5,1 km/h (1 Bft) O-NO 1,00 h 1,4 UV-I 373 W/m 12,0 C 19,3 C 12,9 km/h (3 Bft)
15.09.2016 10:00 24,7 C 21,9 C 48 % 56 % 1011,9 hPa 0,0 l/m 4,4 km/h (1 Bft) O 1,00 h 2,4 UV-I 503 W/m 12,5 C 21,6 C 12,5 km/h (3 Bft)
15.09.2016 11:00 24,8 C 23,9 C 49 % 50 % 1011,6 hPa 0,0 l/m 4,9 km/h (1 Bft) O-NO 1,00 h 3,4 UV-I 604 W/m 12,6 C 23,6 C 12,6 km/h (3 Bft)
15.09.2016 12:00 24,9 C 25,4 C 48 % 44 % 1011,4 hPa 0,0 l/m 5,7 km/h (1 Bft) SO 1,00 h 4,0 UV-I 663 W/m 12,4 C 25,1 C 14,6 km/h (3 Bft)
15.09.2016 13:00 25,1 C 26,2 C 48 % 42 % 1011,1 hPa 0,0 l/m 4,6 km/h (1 Bft) O 1,00 h 4,1 UV-I 671 W/m 12,2 C 26,1 C 13,8 km/h (3 Bft)
15.09.2016 14:00 25,2 C 26,8 C 47 % 40 % 1010,6 hPa 0,0 l/m 5,6 km/h (1 Bft) SO 1,00 h 3,6 UV-I 621 W/m 11,9 C 26,6 C 14,5 km/h (3 Bft)
15.09.2016 15:00 25,3 C 27,3 C 47 % 38 % 1010,1 hPa 0,0 l/m 2,8 km/h (1 Bft) O-SO 1,00 h 2,6 UV-I 525 W/m 11,9 C 27,3 C 9,4 km/h (2 Bft)
15.09.2016 16:00 25,3 C 27,3 C 46 % 34 % 1009,8 hPa 0,0 l/m 3,2 km/h (1 Bft) SO 1,00 h 1,6 UV-I 392 W/m 10,2 C 27,2 C 9,3 km/h (2 Bft)
15.09.2016 17:00 25,3 C 26,8 C 46 % 38 % 1009,8 hPa 0,0 l/m 2,0 km/h (1 Bft) O-SO 0,70 h 0,7 UV-I 206 W/m 11,4 C 26,8 C 5,9 km/h (2 Bft)
15.09.2016 18:00 25,2 C 25,5 C 46 % 41 % 1010,0 hPa 0,0 l/m 0,8 km/h (0 Bft) SO 0,00 h 0,0 UV-I 53 W/m 11,1 C 25,5 C 2,9 km/h (1 Bft)
15.09.2016 19:00 25,1 C 23,0 C 46 % 49 % 1010,0 hPa 0,0 l/m 0,1 km/h (0 Bft) O 0,00 h 0,0 UV-I 9 W/m 11,5 C 23,0 C 0,2 km/h (0 Bft)
15.09.2016 20:00 25,1 C 21,0 C 46 % 57 % 1010,3 hPa 0,0 l/m 0,1 km/h (0 Bft) O-NO 0,00 h 0,0 UV-I 0 W/m 12,1 C 21,0 C 0,3 km/h (0 Bft)
15.09.2016 21:00 25,0 C 19,1 C 47 % 65 % 1010,4 hPa 0,0 l/m 0,5 km/h (0 Bft) NO 0,00 h 0,0 UV-I 0 W/m 12,2 C 19,1 C 2,1 km/h (1 Bft)
15.09.2016 22:00 24,9 C 18,7 C 47 % 67 % 1010,4 hPa 0,0 l/m 0,3 km/h (0 Bft) O-NO 0,00 h 0,0 UV-I 0 W/m 12,4 C 18,7 C 1,0 km/h (0 Bft)
15.09.2016 23:00 24,9 C 17,7 C 48 % 72 % 1010,6 hPa 0,0 l/m 0,0 km/h (0 Bft) N 0,00 h 0,0 UV-I 0 W/m 12,5 C 17,7 C 0,0 km/h (0 Bft)
16.09.2016 00:00 24,9 C 16,4 C 48 % 76 % 1010,7 hPa 0,0 l/m 0,0 km/h (0 Bft) N 0,00 h 0,0 UV-I 0 W/m 12,1 C 16,4 C 0,0 km/h (0 Bft)
16.09.2016 01:00 24,9 C 15,1 C 48 % 81 % 1010,8 hPa 0,0 l/m 0,1 km/h (0 Bft) W 0,00 h 0,0 UV-I 0 W/m 11,8 C 15,1 C 0,5 km/h (0 Bft)
16.09.2016 02:00 24,9 C 14,3 C 48 % 84 % 1011,2 hPa 0,0 l/m 0,0 km/h (0 Bft) N 0,00 h 0,0 UV-I 0 W/m 11,7 C 14,3 C 0,1 km/h (0 Bft)
16.09.2016 03:00 24,4 C 13,7 C 49 % 86 % 1011,4 hPa 0,0 l/m 0,0 km/h (0 Bft) N 0,00 h 0,0 UV-I 0 W/m 11,3 C 13,7 C 0,0 km/h (0 Bft)
16.09.2016 04:00 24,1 C 13,2 C 50 % 88 % 1011,6 hPa 0,0 l/m 0,0 km/h (0 Bft) N 0,00 h 0,0 UV-I 0 W/m 11,3 C 13,2 C 0,1 km/h (0 Bft)
16.09.2016 05:00 24,1 C 13,1 C 50 % 89 % 1011,5 hPa 0,0 l/m 0,0 km/h (0 Bft) N 0,00 h 0,0 UV-I 0 W/m 11,3 C 13,1 C 0,0 km/h (0 Bft)
16.09.2016 06:00 24,0 C 12,7 C 51 % 90 % 1011,5 hPa 0,0 l/m 0,0 km/h (0 Bft) N 0,00 h 0,0 UV-I 6 W/m 11,1 C 12,7 C 0,0 km/h (0 Bft)
16.09.2016 07:00 24,6 C 12,5 C 49 % 91 % 1011,9 hPa 0,0 l/m 0,0 km/h (0 Bft) N 0,00 h 0,0 UV-I 46 W/m 11,1 C 12,5 C 0,0 km/h (0 Bft)
16.09.2016 08:00 24,7 C 15,0 C 49 % 88 % 1012,0 hPa 0,0 l/m 0,0 km/h (0 Bft) N 0,60 h 0,6 UV-I 177 W/m 13,0 C 15,0 C 0,0 km/h (0 Bft)
16.09.2016 09:00 24,7 C 17,7 C 50 % 81 % 1012,2 hPa 0,0 l/m 0,9 km/h (0 Bft) SO 0,55 h 0,9 UV-I 197 W/m 14,3 C 17,7 C 1,9 km/h (1 Bft)
16.09.2016 10:00 24,7 C 19,5 C 51 % 78 % 1012,4 hPa 0,0 l/m 1,9 km/h (1 Bft) SW 1,00 h 1,6 UV-I 268 W/m 15,6 C 19,4 C 3,8 km/h (1 Bft)
16.09.2016 11:00 24,7 C 21,0 C 52 % 73 % 1012,0 hPa 0,0 l/m 1,3 km/h (1 Bft) W-SW 1,00 h 2,2 UV-I 330 W/m 15,9 C 21,0 C 3,2 km/h (1 Bft)
16.09.2016 12:00 24,8 C 22,1 C 52 % 69 % 1011,7 hPa 0,0 l/m 1,8 km/h (1 Bft) W-SW 1,00 h 2,8 UV-I 468 W/m 16,1 C 22,1 C 4,3 km/h (1 Bft)
16.09.2016 13:00 24,9 C 23,3 C 52 % 65 % 1011,3 hPa 0,0 l/m 2,3 km/h (1 Bft) W 1,00 h 3,4 UV-I 516 W/m 16,3 C 23,3 C 5,1 km/h (1 Bft)
16.09.2016 14:00 24,9 C 23,6 C 52 % 64 % 1011,0 hPa 0,0 l/m 2,4 km/h (1 Bft) W-SW 1,00 h 2,3 UV-I 323 W/m 16,3 C 23,6 C 5,1 km/h (1 Bft)
16.09.2016 15:00 25,0 C 23,5 C 53 % 64 % 1010,5 hPa 0,0 l/m 3,6 km/h (1 Bft) W-SW 0,82 h 1,6 UV-I 222 W/m 16,2 C 23,3 C 7,5 km/h (2 Bft)
16.09.2016 16:00 24,9 C 21,2 C 54 % 73 % 1010,7 hPa 0,0 l/m 4,9 km/h (1 Bft) W-NW 0,00 h 0,6 UV-I 82 W/m 16,0 C 21,0 C 10,1 km/h (2 Bft)
16.09.2016 17:00 24,8 C 20,3 C 55 % 73 % 1010,6 hPa 0,0 l/m 0,6 km/h (0 Bft) W-NW 0,00 h 0,6 UV-I 52 W/m 15,3 C 20,3 C 2,3 km/h (1 Bft)
16.09.2016 18:00 24,8 C 19,5 C 54 % 78 % 1010,4 hPa 0,0 l/m 0,4 km/h (0 Bft) W-NW 0,00 h 0,0 UV-I 28 W/m 15,6 C 19,5 C 1,4 km/h (1 Bft)
16.09.2016 19:00 24,8 C 19,1 C 54 % 82 % 1010,2 hPa 0,0 l/m 1,3 km/h (1 Bft) NW 0,00 h 0,0 UV-I 7 W/m 16,0 C 19,1 C 3,5 km/h (1 Bft)
16.09.2016 20:00 24,8 C 18,5 C 55 % 87 % 1010,7 hPa 0,2 l/m 4,1 km/h (1 Bft) N 0,00 h 0,0 UV-I 0 W/m 16,2 C 18,4 C 8,3 km/h (2 Bft)
16.09.2016 21:00 24,7 C 17,4 C 55 % 90 % 1010,7 hPa 4,0 l/m 3,6 km/h (1 Bft) N 0,00 h 0,0 UV-I 0 W/m 15,7 C 17,2 C 7,1 km/h (2 Bft)
16.09.2016 22:00 24,7 C 16,9 C 56 % 93 % 1010,3 hPa 1,6 l/m 2,2 km/h (1 Bft) N 0,00 h 0,0 UV-I 0 W/m 15,6 C 16,8 C 6,4 km/h (2 Bft)
16.09.2016 23:00 24,7 C 16,4 C 56 % 94 % 1010,3 hPa 0,0 l/m 1,0 km/h (0 Bft) N-NO 0,00 h 0,0 UV-I 0 W/m 15,4 C 16,4 C 2,4 km/h (1 Bft)
17.09.2016 00:00 24,7 C 16,2 C 56 % 94 % 1010,0 hPa 0,0 l/m 1,2 km/h (1 Bft) N 0,00 h 0,0 UV-I 0 W/m 15,2 C 16,2 C 3,1 km/h (1 Bft)
17.09.2016 01:00 24,7 C 16,0 C 56 % 95 % 1010,1 hPa 0,0 l/m 1,0 km/h (0 Bft) W-NW 0,00 h 0,0 UV-I 0 W/m 15,2 C 16,0 C 2,7 km/h (1 Bft)
17.09.2016 02:00 24,7 C 16,0 C 55 % 95 % 1009,8 hPa 0,0 l/m 1,2 km/h (1 Bft) N-NW 0,00 h 0,0 UV-I 0 W/m 15,2 C 16,0 C 3,2 km/h (1 Bft)
17.09.2016 03:00 24,6 C 15,9 C 56 % 95 % 1009,4 hPa 0,0 l/m 3,8 km/h (1 Bft) NW 0,00 h 0,0 UV-I 0 W/m 15,1 C 15,8 C 8,2 km/h (2 Bft)
17.09.2016 04:00 24,6 C 15,6 C 56 % 95 % 1009,2 hPa 0,6 l/m 4,3 km/h (1 Bft) NW 0,00 h 0,0 UV-I 0 W/m 14,8 C 15,3 C 10,2 km/h (2 Bft)
17.09.2016 05:00 24,6 C 15,0 C 56 % 95 % 1009,2 hPa 2,6 l/m 3,4 km/h (1 Bft) N-NW 0,00 h 0,0 UV-I 0 W/m 14,2 C 14,8 C 8,9 km/h (2 Bft)
17.09.2016 06:00 24,5 C 14,6 C 56 % 95 % 1009,3 hPa 4,2 l/m 1,4 km/h (1 Bft) N-NW 0,00 h 0,0 UV-I 0 W/m 13,8 C 14,6 C 5,0 km/h (1 Bft)
17.09.2016 07:00 24,5 C 14,4 C 55 % 95 % 1009,4 hPa 3,8 l/m 0,8 km/h (0 Bft) NW 0,00 h 0,0 UV-I 13 W/m 13,7 C 14,4 C 3,4 km/h (1 Bft)
17.09.2016 08:00 24,4 C 14,4 C 55 % 96 % 1009,2 hPa 0,6 l/m 2,9 km/h (1 Bft) NW 0,00 h 0,0 UV-I 29 W/m 13,8 C 14,3 C 8,0 km/h (2 Bft)
17.09.2016 09:00 24,4 C 14,3 C 55 % 96 % 1009,0 hPa 0,4 l/m 4,1 km/h (1 Bft) NW 0,00 h 0,0 UV-I 39 W/m 13,7 C 14,1 C 10,0 km/h (2 Bft)
17.09.2016 10:00 24,4 C 14,4 C 55 % 96 % 1008,9 hPa 0,0 l/m 5,3 km/h (1 Bft) NW 0,00 h 0,5 UV-I 50 W/m 13,7 C 13,9 C 11,5 km/h (2 Bft)
17.09.2016 12:00 24,3 C 14,9 C 55 % 96 % 1008,2 hPa 0,0 l/m 2,4 km/h (1 Bft) NW 0,00 h 0,7 UV-I 69 W/m 14,3 C 14,9 C 7,7 km/h (2 Bft)
17.09.2016 13:00 24,3 C 15,2 C 55 % 96 % 1008,2 hPa 0,6 l/m 4,6 km/h (1 Bft) NW 0,00 h 0,9 UV-I 92 W/m 14,5 C 15,1 C 11,3 km/h (2 Bft)
17.09.2016 14:00 24,3 C 15,4 C 56 % 95 % 1008,2 hPa 0,2 l/m 3,6 km/h (1 Bft) N-NW 0,00 h 0,7 UV-I 57 W/m 14,6 C 15,2 C 8,9 km/h (2 Bft)
17.09.2016 15:00 24,3 C 15,4 C 56 % 95 % 1008,5 hPa 0,4 l/m 1,4 km/h (1 Bft) N-NW 0,00 h 0,5 UV-I 40 W/m 14,6 C 15,4 C 5,0 km/h (1 Bft)
17.09.2016 16:00 24,1 C 15,2 C 56 % 95 % 1008,4 hPa 0,2 l/m 3,7 km/h (1 Bft) NW 0,00 h 0,5 UV-I 38 W/m 14,4 C 15,1 C 9,3 km/h (2 Bft)
17.09.2016 17:00 23,6 C 14,9 C 57 % 95 % 1008,3 hPa 0,0 l/m 5,0 km/h (1 Bft) N 0,00 h 0,0 UV-I 13 W/m 14,1 C 14,4 C 12,1 km/h (2 Bft)
17.09.2016 18:00 23,8 C 14,6 C 57 % 95 % 1008,4 hPa 0,0 l/m 4,5 km/h (1 Bft) N 0,00 h 0,0 UV-I 12 W/m 13,8 C 14,0 C 9,9 km/h (2 Bft)
17.09.2016 19:00 23,9 C 14,4 C 56 % 95 % 1008,5 hPa 0,0 l/m 1,0 km/h (0 Bft) NW 0,00 h 0,0 UV-I 0 W/m 13,6 C 14,3 C 3,0 km/h (1 Bft)
17.09.2016 20:00 23,9 C 14,2 C 56 % 95 % 1008,9 hPa 0,6 l/m 5,1 km/h (1 Bft) N 0,00 h 0,0 UV-I 0 W/m 13,4 C 13,5 C 9,8 km/h (2 Bft)
17.09.2016 21:00 23,8 C 13,9 C 56 % 95 % 1009,3 hPa 2,2 l/m 2,3 km/h (1 Bft) N 0,00 h 0,0 UV-I 0 W/m 13,2 C 13,7 C 5,3 km/h (1 Bft)
17.09.2016 22:00 23,9 C 13,9 C 56 % 96 % 1009,4 hPa 0,4 l/m 0,2 km/h (0 Bft) N 0,00 h 0,0 UV-I 0 W/m 13,3 C 13,9 C 0,9 km/h (0 Bft)
17.09.2016 23:00 23,9 C 13,9 C 56 % 96 % 1009,4 hPa 0,0 l/m 0,0 km/h (0 Bft) N 0,00 h 0,0 UV-I 0 W/m 13,3 C 13,9 C 0,3 km/h (0 Bft)
18.09.2016 00:00 23,9 C 13,9 C 56 % 96 % 1009,5 hPa 0,0 l/m 0,0 km/h (0 Bft) N 0,00 h 0,0 UV-I 0 W/m 13,3 C 13,9 C 0,1 km/h (0 Bft)
18.09.2016 01:00 23,9 C 14,0 C 56 % 96 % 1009,7 hPa 0,0 l/m 0,2 km/h (0 Bft) N 0,00 h 0,0 UV-I 0 W/m 13,3 C 14,0 C 1,1 km/h (1 Bft)
18.09.2016 02:00 23,9 C 13,9 C 56 % 97 % 1009,7 hPa 0,0 l/m 0,0 km/h (0 Bft) N 0,00 h 0,0 UV-I 0 W/m 13,4 C 13,9 C 0,3 km/h (0 Bft)
18.09.2016 03:00 23,9 C 14,0 C 56 % 97 % 1009,7 hPa 0,0 l/m 0,0 km/h (0 Bft) N 0,00 h 0,0 UV-I 0 W/m 13,6 C 14,0 C 0,1 km/h (0 Bft)
18.09.2016 04:00 23,9 C 14,3 C 56 % 97 % 1009,6 hPa 0,0 l/m 0,0 km/h (0 Bft) N 0,00 h 0,0 UV-I 0 W/m 13,8 C 14,3 C 0,1 km/h (0 Bft)
18.09.2016 05:00 23,9 C 14,4 C 56 % 97 % 1009,6 hPa 0,0 l/m 0,4 km/h (0 Bft) N 0,00 h 0,0 UV-I 0 W/m 13,9 C 14,4 C 1,9 km/h (1 Bft)
18.09.2016 06:00 23,8 C 14,3 C 56 % 97 % 1009,5 hPa 0,0 l/m 0,9 km/h (0 Bft) N-NW 0,00 h 0,0 UV-I 0 W/m 13,8 C 14,3 C 3,2 km/h (1 Bft)
18.09.2016 07:00 23,8 C 14,3 C 56 % 97 % 1009,7 hPa 0,4 l/m 0,2 km/h (0 Bft) N 0,00 h 0,0 UV-I 10 W/m 13,8 C 14,3 C 1,1 km/h (1 Bft)
18.09.2016 08:00 23,8 C 14,4 C 56 % 97 % 1009,7 hPa 0,4 l/m 1,7 km/h (1 Bft) N 0,00 h 0,0 UV-I 35 W/m 13,9 C 14,4 C 5,8 km/h (2 Bft)
18.09.2016 09:00 23,8 C 14,4 C 56 % 97 % 1009,9 hPa 1,0 l/m 0,8 km/h (0 Bft) N 0,00 h 0,0 UV-I 41 W/m 13,9 C 14,4 C 3,4 km/h (1 Bft)
18.09.2016 10:00 23,8 C 14,6 C 56 % 97 % 1010,2 hPa 0,8 l/m 1,0 km/h (0 Bft) N 0,00 h 0,8 UV-I 75 W/m 14,2 C 14,6 C 2,6 km/h (1 Bft)
18.09.2016 11:00 23,7 C 15,3 C 57 % 96 % 1010,2 hPa 0,0 l/m 6,3 km/h (2 Bft) N 0,55 h 1,5 UV-I 188 W/m 14,6 C 14,6 C 12,9 km/h (3 Bft)
18.09.2016 12:00 23,7 C 14,7 C 57 % 95 % 1010,2 hPa 2,4 l/m 5,0 km/h (1 Bft) N 0,00 h 0,8 UV-I 70 W/m 14,0 C 14,1 C 9,9 km/h (2 Bft)
18.09.2016 13:00 23,7 C 14,3 C 56 % 96 % 1010,4 hPa 2,2 l/m 2,6 km/h (1 Bft) N 0,00 h 0,8 UV-I 59 W/m 13,7 C 14,3 C 7,3 km/h (2 Bft)
18.09.2016 14:00 23,7 C 14,2 C 56 % 96 % 1010,5 hPa 0,6 l/m 4,6 km/h (1 Bft) N 0,00 h 0,7 UV-I 65 W/m 13,6 C 13,9 C 10,3 km/h (2 Bft)
18.09.2016 15:00 23,6 C 13,7 C 56 % 96 % 1010,6 hPa 0,0 l/m 7,5 km/h (2 Bft) N 0,00 h 0,6 UV-I 62 W/m 13,0 C 12,4 C 13,1 km/h (3 Bft)
18.09.2016 16:00 23,6 C 13,2 C 56 % 96 % 1010,8 hPa 0,4 l/m 10,6 km/h (2 Bft) N 0,00 h 0,5 UV-I 39 W/m 12,5 C 10,8 C 15,6 km/h (3 Bft)
18.09.2016 17:00 23,5 C 12,7 C 55 % 96 % 1010,9 hPa 0,2 l/m 6,7 km/h (2 Bft) N 0,00 h 0,0 UV-I 31 W/m 12,0 C 11,6 C 13,2 km/h (3 Bft)
18.09.2016 18:00 23,0 C 12,3 C 54 % 96 % 1011,2 hPa 0,2 l/m 4,1 km/h (1 Bft) N 0,00 h 0,0 UV-I 9 W/m 11,6 C 11,9 C 9,0 km/h (2 Bft)
18.09.2016 19:00 22,8 C 12,0 C 55 % 96 % 1011,5 hPa 0,0 l/m 1,7 km/h (1 Bft) N 0,00 h 0,0 UV-I 0 W/m 11,4 C 11,9 C 4,8 km/h (1 Bft)
18.09.2016 20:00 23,1 C 11,8 C 54 % 96 % 1011,8 hPa 0,0 l/m 3,7 km/h (1 Bft) N 0,00 h 0,0 UV-I 0 W/m 11,2 C 11,5 C 8,1 km/h (2 Bft)
18.09.2016 21:00 23,1 C 11,7 C 54 % 96 % 1012,0 hPa 0,0 l/m 1,0 km/h (0 Bft) N-NW 0,00 h 0,0 UV-I 0 W/m 11,0 C 11,6 C 3,6 km/h (1 Bft)
18.09.2016 22:00 23,2 C 11,6 C 54 % 96 % 1012,1 hPa 0,0 l/m 0,3 km/h (0 Bft) N-NW 0,00 h 0,0 UV-I 0 W/m 11,0 C 11,6 C 1,5 km/h (1 Bft)
18.09.2016 23:00 23,2 C 11,6 C 54 % 96 % 1012,3 hPa 0,0 l/m 0,1 km/h (0 Bft) N 0,00 h 0,0 UV-I 0 W/m 11,0 C 11,6 C 0,6 km/h (0 Bft)
Min-Datum _ 18.09.16 18.09.16 15.09.16 15.09.16 17.09.16 - 12.09.16 - - - - 15.09.16 18.09.16 12.09.16
_ Min-Zeit 18:51 21:33 14:49 16:25 12:46 - 13:06 - - - - 16:35 17:25 13:06
Minimum _ 22,4 C 11,6 C 46 % 32 % 1008,1 hPa - 0,0 km/h (0 Bft) - - - - 9,1 C 8,5 C 0,0 km/h (0 Bft)
Max-Datum _ 12.09.16 12.09.16 17.09.16 18.09.16 12.09.16 17.09.16 13.09.16 - 12.09.16 12.09.16 14.09.16 13.09.16 12.09.16 15.09.16
_ Max-Zeit 14:07 15:24 17:14 02:16 12:50 06:49 13:40 - 12:50 13:11 12:50 09:55 15:24 11:18
Maximum _ 25,5 C 29,7 C 58 % 97 % 1017,9 hPa 4,2 l/m 16,1 km/h
SO (3 Bft)
- 1,00 h 4,3 UV-I 737 W/m 17,6 C 29,7 C 29,0 km/h
O (5 Bft)
Durchschnitt _ 24,6 C 18,7 C 53 % 75 % 1012,3 hPa #31,2 l/m 2,1 km/h (1 Bft) N #41:39 h 1,9 UV-I 243 W/m 13,4 C 18,6 C 5,1 km/h (1 Bft)